ROMMA est une association bénévole à but non lucratif. Votre soutien est indispensable : ADHERER à ROMMA ou FAIRE un DON

Lyon - (69, Rhône)

Plaine lyonnaise (169 m)   Longitude: 04° 49' 55" E   Latitude: 45° 43' 50" N Station partenaire n°124
 

Détail journalier du     <<     >>

Température Precipitation Humidité Pression Vent Dir Rafale Dir. rafale Ensol.
Heure (°C) (mm) (%) (hPa) (km/h) (km/h) (min)
01:00 15.109510101---8NO0
02:00 15.409510101---8NO0
03:00 15.3095101005O0
04:00 14.9095100903---0
05:00 14.7096100903---0
06:00 15.30.39610081---5---0
07:00 15.909510094SO16SO0
08:00 16.009410082S16SO0
09:00 16.009410093SO11S0
10:00 16.409510091---5NO0
11:00 16.4095100800---0
12:00 17.009310081---6E0
13:00 17.709110071NE8NE0
14:00 19.108510062NO10S0
15:00 20.6075100510SO26SO0
16:00 18.72.287100512S29S0
17:00 19.9080100512S35SE0
18:00 20.0078100513SE32SE0
19:00 19.8076100518S45S0
20:00 20.2074100518S48S0
21:00 20.3072100518SO37SO0
22:00 20.7069100519SO45S0
23:00 20.6069100521SO50SO0
minuit 20.8065100520S45SO0

Graphique du 19-10-2019

 

Serveur OMMA